sensor_id;sensor_type;location;lat;lon;timestamp;P1;durP1;ratioP1;P2;durP2;ratioP2
37047;SDS011;23227;48.780;9.210;2022-12-07T00:00:34;8.17;;;5.20;;
37047;SDS011;23227;48.780;9.210;2022-12-07T00:03:37;10.50;;;5.67;;
37047;SDS011;23227;48.780;9.210;2022-12-07T00:06:41;7.18;;;5.00;;
37047;SDS011;23227;48.780;9.210;2022-12-07T00:09:45;10.97;;;5.10;;
37047;SDS011;23227;48.780;9.210;2022-12-07T00:12:49;10.23;;;5.37;;
37047;SDS011;23227;48.780;9.210;2022-12-07T00:15:52;11.63;;;5.83;;
37047;SDS011;23227;48.780;9.210;2022-12-07T00:18:55;8.40;;;5.20;;
37047;SDS011;23227;48.780;9.210;2022-12-07T00:21:58;9.70;;;5.00;;
37047;SDS011;23227;48.780;9.210;2022-12-07T00:25:01;7.90;;;4.75;;
37047;SDS011;23227;48.780;9.210;2022-12-07T00:28:05;5.97;;;3.80;;
37047;SDS011;23227;48.780;9.210;2022-12-07T00:31:11;8.73;;;4.80;;
37047;SDS011;23227;48.780;9.210;2022-12-07T00:34:16;11.63;;;5.80;;
37047;SDS011;23227;48.780;9.210;2022-12-07T00:37:19;11.67;;;5.87;;
37047;SDS011;23227;48.780;9.210;2022-12-07T00:40:22;9.13;;;5.60;;
37047;SDS011;23227;48.780;9.210;2022-12-07T00:43:26;10.10;;;5.90;;
37047;SDS011;23227;48.780;9.210;2022-12-07T00:46:29;10.07;;;5.70;;
37047;SDS011;23227;48.780;9.210;2022-12-07T00:49:32;7.93;;;4.88;;
37047;SDS011;23227;48.780;9.210;2022-12-07T00:52:35;10.23;;;6.13;;
37047;SDS011;23227;48.780;9.210;2022-12-07T00:55:38;8.93;;;4.93;;
37047;SDS011;23227;48.780;9.210;2022-12-07T00:58:42;8.00;;;4.70;;
37047;SDS011;23227;48.780;9.210;2022-12-07T01:01:45;11.80;;;6.03;;
37047;SDS011;23227;48.780;9.210;2022-12-07T01:04:48;7.72;;;5.03;;
37047;SDS011;23227;48.780;9.210;2022-12-07T01:07:51;9.57;;;5.13;;
37047;SDS011;23227;48.780;9.210;2022-12-07T01:11:03;9.83;;;4.87;;
37047;SDS011;23227;48.780;9.210;2022-12-07T01:14:09;10.43;;;5.43;;
37047;SDS011;23227;48.780;9.210;2022-12-07T01:17:12;11.97;;;6.30;;
37047;SDS011;23227;48.780;9.210;2022-12-07T01:20:15;8.80;;;5.13;;
37047;SDS011;23227;48.780;9.210;2022-12-07T01:23:18;10.07;;;6.00;;
37047;SDS011;23227;48.780;9.210;2022-12-07T01:26:21;14.20;;;5.60;;
37047;SDS011;23227;48.780;9.210;2022-12-07T01:29:26;8.87;;;5.67;;
37047;SDS011;23227;48.780;9.210;2022-12-07T01:32:29;11.03;;;6.30;;
37047;SDS011;23227;48.780;9.210;2022-12-07T01:35:33;11.67;;;6.77;;
37047;SDS011;23227;48.780;9.210;2022-12-07T01:38:36;17.27;;;6.20;;
37047;SDS011;23227;48.780;9.210;2022-12-07T01:41:39;12.30;;;6.00;;
37047;SDS011;23227;48.780;9.210;2022-12-07T01:48:26;11.70;;;6.10;;
37047;SDS011;23227;48.780;9.210;2022-12-07T01:51:30;11.13;;;5.20;;
37047;SDS011;23227;48.780;9.210;2022-12-07T01:54:32;9.07;;;5.60;;
37047;SDS011;23227;48.780;9.210;2022-12-07T01:57:37;11.70;;;6.60;;
37047;SDS011;23227;48.780;9.210;2022-12-07T02:00:42;8.57;;;5.20;;
37047;SDS011;23227;48.780;9.210;2022-12-07T02:03:46;12.82;;;6.45;;
37047;SDS011;23227;48.780;9.210;2022-12-07T02:06:50;8.77;;;5.57;;
37047;SDS011;23227;48.780;9.210;2022-12-07T02:12:57;12.33;;;6.03;;
37047;SDS011;23227;48.780;9.210;2022-12-07T02:16:08;12.17;;;6.30;;
37047;SDS011;23227;48.780;9.210;2022-12-07T02:19:37;12.37;;;6.37;;
37047;SDS011;23227;48.780;9.210;2022-12-07T02:23:04;9.70;;;5.90;;
37047;SDS011;23227;48.780;9.210;2022-12-07T02:26:31;13.17;;;6.70;;
37047;SDS011;23227;48.780;9.210;2022-12-07T02:29:57;11.63;;;6.07;;
37047;SDS011;23227;48.780;9.210;2022-12-07T02:33:03;11.67;;;6.50;;
37047;SDS011;23227;48.780;9.210;2022-12-07T02:36:10;12.83;;;6.13;;
37047;SDS011;23227;48.780;9.210;2022-12-07T02:39:16;12.77;;;6.53;;
37047;SDS011;23227;48.780;9.210;2022-12-07T02:42:23;12.93;;;6.60;;
37047;SDS011;23227;48.780;9.210;2022-12-07T02:45:30;10.10;;;5.63;;
37047;SDS011;23227;48.780;9.210;2022-12-07T02:48:33;13.23;;;6.43;;
37047;SDS011;23227;48.780;9.210;2022-12-07T02:51:38;10.30;;;5.80;;
37047;SDS011;23227;48.780;9.210;2022-12-07T02:54:41;11.63;;;6.73;;
37047;SDS011;23227;48.780;9.210;2022-12-07T02:57:57;12.10;;;6.93;;
37047;SDS011;23227;48.780;9.210;2022-12-07T03:01:20;11.27;;;6.03;;
37047;SDS011;23227;48.780;9.210;2022-12-07T03:04:33;11.90;;;6.05;;
37047;SDS011;23227;48.780;9.210;2022-12-07T03:07:43;12.47;;;5.93;;
37047;SDS011;23227;48.780;9.210;2022-12-07T03:10:54;11.97;;;5.87;;
37047;SDS011;23227;48.780;9.210;2022-12-07T03:13:59;9.10;;;5.80;;
37047;SDS011;23227;48.780;9.210;2022-12-07T03:17:07;14.67;;;6.00;;
37047;SDS011;23227;48.780;9.210;2022-12-07T03:20:13;10.90;;;6.10;;
37047;SDS011;23227;48.780;9.210;2022-12-07T03:23:20;11.63;;;5.40;;
37047;SDS011;23227;48.780;9.210;2022-12-07T03:29:45;9.47;;;5.60;;
37047;SDS011;23227;48.780;9.210;2022-12-07T03:32:52;9.90;;;5.10;;
37047;SDS011;23227;48.780;9.210;2022-12-07T03:35:58;9.70;;;5.23;;
37047;SDS011;23227;48.780;9.210;2022-12-07T03:39:04;9.87;;;5.20;;
37047;SDS011;23227;48.780;9.210;2022-12-07T03:42:11;11.03;;;6.70;;
37047;SDS011;23227;48.780;9.210;2022-12-07T03:45:14;7.10;;;4.75;;
37047;SDS011;23227;48.780;9.210;2022-12-07T03:48:20;10.18;;;5.53;;
37047;SDS011;23227;48.780;9.210;2022-12-07T03:51:27;9.80;;;5.80;;
37047;SDS011;23227;48.780;9.210;2022-12-07T03:54:34;9.50;;;4.83;;
37047;SDS011;23227;48.780;9.210;2022-12-07T03:57:39;12.73;;;6.40;;
37047;SDS011;23227;48.780;9.210;2022-12-07T04:00:43;8.05;;;5.05;;
37047;SDS011;23227;48.780;9.210;2022-12-07T04:03:47;8.37;;;5.03;;
37047;SDS011;23227;48.780;9.210;2022-12-07T04:06:50;6.77;;;4.43;;
37047;SDS011;23227;48.780;9.210;2022-12-07T04:09:53;9.10;;;5.27;;
37047;SDS011;23227;48.780;9.210;2022-12-07T04:12:56;9.40;;;5.90;;
37047;SDS011;23227;48.780;9.210;2022-12-07T04:15:59;7.90;;;4.87;;
37047;SDS011;23227;48.780;9.210;2022-12-07T04:19:03;8.23;;;5.22;;
37047;SDS011;23227;48.780;9.210;2022-12-07T04:22:06;13.53;;;5.10;;
37047;SDS011;23227;48.780;9.210;2022-12-07T04:25:09;7.70;;;4.90;;
37047;SDS011;23227;48.780;9.210;2022-12-07T04:28:11;8.27;;;4.80;;
37047;SDS011;23227;48.780;9.210;2022-12-07T04:31:14;9.97;;;5.43;;
37047;SDS011;23227;48.780;9.210;2022-12-07T04:34:18;12.37;;;4.60;;
37047;SDS011;23227;48.780;9.210;2022-12-07T04:37:21;8.10;;;4.17;;
37047;SDS011;23227;48.780;9.210;2022-12-07T04:40:24;8.57;;;4.20;;
37047;SDS011;23227;48.780;9.210;2022-12-07T04:43:27;7.73;;;4.03;;
37047;SDS011;23227;48.780;9.210;2022-12-07T04:46:30;5.63;;;3.27;;
37047;SDS011;23227;48.780;9.210;2022-12-07T04:52:38;7.40;;;4.13;;
37047;SDS011;23227;48.780;9.210;2022-12-07T04:55:40;8.27;;;4.03;;
37047;SDS011;23227;48.780;9.210;2022-12-07T04:58:43;6.03;;;3.63;;
37047;SDS011;23227;48.780;9.210;2022-12-07T05:01:46;6.15;;;3.10;;
37047;SDS011;23227;48.780;9.210;2022-12-07T05:04:51;6.75;;;3.92;;
37047;SDS011;23227;48.780;9.210;2022-12-07T05:07:53;5.10;;;2.90;;
37047;SDS011;23227;48.780;9.210;2022-12-07T05:10:56;5.57;;;3.93;;
37047;SDS011;23227;48.780;9.210;2022-12-07T05:13:59;6.20;;;3.00;;
37047;SDS011;23227;48.780;9.210;2022-12-07T05:20:08;6.13;;;3.67;;
37047;SDS011;23227;48.780;9.210;2022-12-07T05:23:11;8.87;;;4.20;;
37047;SDS011;23227;48.780;9.210;2022-12-07T05:26:15;8.32;;;4.53;;
37047;SDS011;23227;48.780;9.210;2022-12-07T05:29:18;8.13;;;4.38;;
37047;SDS011;23227;48.780;9.210;2022-12-07T05:32:21;10.48;;;6.05;;
37047;SDS011;23227;48.780;9.210;2022-12-07T05:35:25;8.95;;;4.93;;
37047;SDS011;23227;48.780;9.210;2022-12-07T05:38:28;10.33;;;5.20;;
37047;SDS011;23227;48.780;9.210;2022-12-07T05:41:31;11.07;;;5.22;;
37047;SDS011;23227;48.780;9.210;2022-12-07T05:44:52;9.60;;;5.27;;
37047;SDS011;23227;48.780;9.210;2022-12-07T05:47:54;9.90;;;5.07;;
37047;SDS011;23227;48.780;9.210;2022-12-07T05:50:59;9.18;;;5.10;;
37047;SDS011;23227;48.780;9.210;2022-12-07T05:54:02;11.50;;;5.50;;
37047;SDS011;23227;48.780;9.210;2022-12-07T05:57:05;9.63;;;4.95;;
37047;SDS011;23227;48.780;9.210;2022-12-07T06:00:08;9.07;;;5.28;;
37047;SDS011;23227;48.780;9.210;2022-12-07T06:03:11;13.75;;;7.05;;
37047;SDS011;23227;48.780;9.210;2022-12-07T06:06:15;9.87;;;5.47;;
37047;SDS011;23227;48.780;9.210;2022-12-07T06:09:18;11.90;;;6.17;;
37047;SDS011;23227;48.780;9.210;2022-12-07T06:12:21;14.65;;;6.28;;
37047;SDS011;23227;48.780;9.210;2022-12-07T06:15:36;10.70;;;5.50;;
37047;SDS011;23227;48.780;9.210;2022-12-07T06:18:39;10.90;;;5.63;;
37047;SDS011;23227;48.780;9.210;2022-12-07T06:21:44;10.38;;;5.40;;
37047;SDS011;23227;48.780;9.210;2022-12-07T06:24:47;8.77;;;5.17;;
37047;SDS011;23227;48.780;9.210;2022-12-07T06:27:50;10.27;;;5.57;;
37047;SDS011;23227;48.780;9.210;2022-12-07T06:30:56;9.43;;;5.13;;
37047;SDS011;23227;48.780;9.210;2022-12-07T06:34:00;10.20;;;5.43;;
37047;SDS011;23227;48.780;9.210;2022-12-07T06:37:05;11.37;;;5.40;;
37047;SDS011;23227;48.780;9.210;2022-12-07T06:40:09;10.93;;;5.83;;
37047;SDS011;23227;48.780;9.210;2022-12-07T06:43:12;9.85;;;6.05;;
37047;SDS011;23227;48.780;9.210;2022-12-07T06:46:15;9.60;;;5.88;;
37047;SDS011;23227;48.780;9.210;2022-12-07T06:49:20;9.03;;;5.40;;
37047;SDS011;23227;48.780;9.210;2022-12-07T06:52:24;9.65;;;5.57;;
37047;SDS011;23227;48.780;9.210;2022-12-07T06:55:27;12.63;;;6.03;;
37047;SDS011;23227;48.780;9.210;2022-12-07T06:58:30;8.57;;;4.23;;
37047;SDS011;23227;48.780;9.210;2022-12-07T07:01:33;10.77;;;4.75;;
37047;SDS011;23227;48.780;9.210;2022-12-07T07:04:37;9.70;;;4.90;;
37047;SDS011;23227;48.780;9.210;2022-12-07T07:07:42;9.95;;;4.75;;
37047;SDS011;23227;48.780;9.210;2022-12-07T07:14:08;9.13;;;4.63;;
37047;SDS011;23227;48.780;9.210;2022-12-07T07:17:10;6.60;;;3.37;;
37047;SDS011;23227;48.780;9.210;2022-12-07T07:20:13;7.10;;;3.30;;
37047;SDS011;23227;48.780;9.210;2022-12-07T07:23:17;6.27;;;3.90;;
37047;SDS011;23227;48.780;9.210;2022-12-07T07:26:20;6.27;;;3.70;;
37047;SDS011;23227;48.780;9.210;2022-12-07T07:29:23;7.65;;;3.40;;
37047;SDS011;23227;48.780;9.210;2022-12-07T07:32:26;5.60;;;3.23;;
37047;SDS011;23227;48.780;9.210;2022-12-07T07:35:29;6.37;;;3.57;;
37047;SDS011;23227;48.780;9.210;2022-12-07T07:38:34;6.07;;;3.15;;
37047;SDS011;23227;48.780;9.210;2022-12-07T07:41:37;6.47;;;3.40;;
37047;SDS011;23227;48.780;9.210;2022-12-07T07:44:39;5.97;;;2.90;;
37047;SDS011;23227;48.780;9.210;2022-12-07T07:47:42;5.33;;;3.30;;
37047;SDS011;23227;48.780;9.210;2022-12-07T07:50:45;6.07;;;3.47;;
37047;SDS011;23227;48.780;9.210;2022-12-07T07:53:49;5.63;;;3.23;;
37047;SDS011;23227;48.780;9.210;2022-12-07T07:56:52;5.43;;;3.13;;
37047;SDS011;23227;48.780;9.210;2022-12-07T07:59:54;7.03;;;2.97;;
37047;SDS011;23227;48.780;9.210;2022-12-07T08:02:58;5.78;;;3.33;;
37047;SDS011;23227;48.780;9.210;2022-12-07T08:06:01;9.80;;;3.40;;
37047;SDS011;23227;48.780;9.210;2022-12-07T08:09:05;5.78;;;3.65;;
37047;SDS011;23227;48.780;9.210;2022-12-07T08:12:09;6.23;;;3.40;;
37047;SDS011;23227;48.780;9.210;2022-12-07T08:15:12;5.47;;;3.10;;
37047;SDS011;23227;48.780;9.210;2022-12-07T08:18:15;7.45;;;3.67;;
37047;SDS011;23227;48.780;9.210;2022-12-07T08:21:18;7.07;;;3.93;;
37047;SDS011;23227;48.780;9.210;2022-12-07T08:24:22;7.20;;;3.53;;
37047;SDS011;23227;48.780;9.210;2022-12-07T08:27:26;8.20;;;3.13;;
37047;SDS011;23227;48.780;9.210;2022-12-07T08:30:29;8.35;;;3.42;;
37047;SDS011;23227;48.780;9.210;2022-12-07T08:33:32;6.78;;;3.83;;
37047;SDS011;23227;48.780;9.210;2022-12-07T08:36:36;5.10;;;3.30;;
37047;SDS011;23227;48.780;9.210;2022-12-07T08:39:40;4.47;;;3.20;;
37047;SDS011;23227;48.780;9.210;2022-12-07T08:42:43;5.67;;;3.53;;
37047;SDS011;23227;48.780;9.210;2022-12-07T08:45:47;6.10;;;3.77;;
37047;SDS011;23227;48.780;9.210;2022-12-07T08:48:51;6.93;;;3.67;;
37047;SDS011;23227;48.780;9.210;2022-12-07T08:51:55;8.40;;;3.17;;
37047;SDS011;23227;48.780;9.210;2022-12-07T08:55:00;7.78;;;3.75;;
37047;SDS011;23227;48.780;9.210;2022-12-07T08:58:04;7.37;;;4.13;;
37047;SDS011;23227;48.780;9.210;2022-12-07T09:01:06;7.43;;;3.73;;
37047;SDS011;23227;48.780;9.210;2022-12-07T09:04:09;11.05;;;4.32;;
37047;SDS011;23227;48.780;9.210;2022-12-07T09:07:12;7.33;;;3.57;;
37047;SDS011;23227;48.780;9.210;2022-12-07T09:10:16;6.45;;;3.55;;
37047;SDS011;23227;48.780;9.210;2022-12-07T09:13:19;7.63;;;3.70;;
37047;SDS011;23227;48.780;9.210;2022-12-07T09:16:22;6.87;;;3.20;;
37047;SDS011;23227;48.780;9.210;2022-12-07T09:19:26;5.37;;;3.03;;
37047;SDS011;23227;48.780;9.210;2022-12-07T09:22:29;6.05;;;3.55;;
37047;SDS011;23227;48.780;9.210;2022-12-07T09:25:34;7.05;;;3.47;;
37047;SDS011;23227;48.780;9.210;2022-12-07T09:28:38;10.70;;;3.60;;
37047;SDS011;23227;48.780;9.210;2022-12-07T09:31:41;5.20;;;3.08;;
37047;SDS011;23227;48.780;9.210;2022-12-07T09:37:47;5.10;;;3.00;;
37047;SDS011;23227;48.780;9.210;2022-12-07T09:40:52;6.43;;;3.03;;
37047;SDS011;23227;48.780;9.210;2022-12-07T09:43:58;5.13;;;2.93;;
37047;SDS011;23227;48.780;9.210;2022-12-07T09:47:07;4.83;;;3.07;;
37047;SDS011;23227;48.780;9.210;2022-12-07T09:50:12;6.70;;;3.30;;
37047;SDS011;23227;48.780;9.210;2022-12-07T09:53:18;5.70;;;2.67;;
37047;SDS011;23227;48.780;9.210;2022-12-07T09:56:31;5.10;;;2.90;;
37047;SDS011;23227;48.780;9.210;2022-12-07T09:59:34;4.50;;;2.53;;
37047;SDS011;23227;48.780;9.210;2022-12-07T10:02:38;5.72;;;2.78;;
37047;SDS011;23227;48.780;9.210;2022-12-07T10:05:44;6.07;;;2.73;;
37047;SDS011;23227;48.780;9.210;2022-12-07T10:08:49;5.13;;;2.50;;
37047;SDS011;23227;48.780;9.210;2022-12-07T10:15:16;6.00;;;2.77;;
37047;SDS011;23227;48.780;9.210;2022-12-07T10:18:24;4.57;;;2.20;;
37047;SDS011;23227;48.780;9.210;2022-12-07T10:21:29;4.20;;;3.00;;
37047;SDS011;23227;48.780;9.210;2022-12-07T10:24:32;4.15;;;2.45;;
37047;SDS011;23227;48.780;9.210;2022-12-07T10:27:37;3.83;;;2.10;;
37047;SDS011;23227;48.780;9.210;2022-12-07T10:30:47;3.10;;;1.97;;
37047;SDS011;23227;48.780;9.210;2022-12-07T10:33:52;4.87;;;2.30;;
37047;SDS011;23227;48.780;9.210;2022-12-07T10:40:27;3.10;;;2.00;;
37047;SDS011;23227;48.780;9.210;2022-12-07T10:43:35;3.90;;;2.17;;
37047;SDS011;23227;48.780;9.210;2022-12-07T10:46:43;3.43;;;1.97;;
37047;SDS011;23227;48.780;9.210;2022-12-07T10:50:02;3.27;;;2.23;;
37047;SDS011;23227;48.780;9.210;2022-12-07T10:53:28;3.83;;;2.00;;
37047;SDS011;23227;48.780;9.210;2022-12-07T10:56:43;3.07;;;2.03;;
37047;SDS011;23227;48.780;9.210;2022-12-07T11:00:00;3.73;;;2.23;;
37047;SDS011;23227;48.780;9.210;2022-12-07T11:03:13;3.53;;;2.17;;
37047;SDS011;23227;48.780;9.210;2022-12-07T11:06:27;3.53;;;2.40;;
37047;SDS011;23227;48.780;9.210;2022-12-07T11:09:42;3.97;;;2.33;;
37047;SDS011;23227;48.780;9.210;2022-12-07T11:13:13;5.22;;;2.90;;
37047;SDS011;23227;48.780;9.210;2022-12-07T11:16:33;4.13;;;2.70;;
37047;SDS011;23227;48.780;9.210;2022-12-07T11:19:47;3.97;;;1.90;;
37047;SDS011;23227;48.780;9.210;2022-12-07T11:22:55;4.07;;;1.77;;
37047;SDS011;23227;48.780;9.210;2022-12-07T11:26:02;2.20;;;1.70;;
37047;SDS011;23227;48.780;9.210;2022-12-07T11:29:13;2.80;;;1.67;;
37047;SDS011;23227;48.780;9.210;2022-12-07T11:32:40;3.80;;;1.70;;
37047;SDS011;23227;48.780;9.210;2022-12-07T11:35:54;4.57;;;2.43;;
37047;SDS011;23227;48.780;9.210;2022-12-07T11:39:03;3.60;;;1.60;;
37047;SDS011;23227;48.780;9.210;2022-12-07T11:42:08;3.83;;;1.60;;
37047;SDS011;23227;48.780;9.210;2022-12-07T11:45:16;3.33;;;1.47;;
37047;SDS011;23227;48.780;9.210;2022-12-07T11:48:24;2.07;;;1.30;;
37047;SDS011;23227;48.780;9.210;2022-12-07T11:51:33;3.83;;;1.97;;
37047;SDS011;23227;48.780;9.210;2022-12-07T11:54:39;2.13;;;1.60;;
37047;SDS011;23227;48.780;9.210;2022-12-07T11:57:44;3.40;;;1.90;;
37047;SDS011;23227;48.780;9.210;2022-12-07T12:00:49;3.30;;;2.23;;
37047;SDS011;23227;48.780;9.210;2022-12-07T12:03:58;3.47;;;2.00;;
37047;SDS011;23227;48.780;9.210;2022-12-07T12:07:05;3.87;;;2.33;;
37047;SDS011;23227;48.780;9.210;2022-12-07T12:10:31;3.47;;;2.55;;
37047;SDS011;23227;48.780;9.210;2022-12-07T12:13:46;4.07;;;2.67;;
37047;SDS011;23227;48.780;9.210;2022-12-07T12:17:47;4.73;;;3.17;;
37047;SDS011;23227;48.780;9.210;2022-12-07T12:21:08;4.50;;;2.80;;
37047;SDS011;23227;48.780;9.210;2022-12-07T12:24:13;7.33;;;4.23;;
37047;SDS011;23227;48.780;9.210;2022-12-07T12:27:20;3.67;;;3.00;;
37047;SDS011;23227;48.780;9.210;2022-12-07T12:30:30;10.73;;;4.40;;
37047;SDS011;23227;48.780;9.210;2022-12-07T12:33:35;8.00;;;4.10;;
37047;SDS011;23227;48.780;9.210;2022-12-07T12:36:44;5.60;;;3.70;;
37047;SDS011;23227;48.780;9.210;2022-12-07T12:46:51;7.93;;;3.90;;
37047;SDS011;23227;48.780;9.210;2022-12-07T12:53:25;3.97;;;2.13;;
37047;SDS011;23227;48.780;9.210;2022-12-07T12:56:33;5.47;;;3.07;;
37047;SDS011;23227;48.780;9.210;2022-12-07T12:59:40;2.70;;;2.40;;
37047;SDS011;23227;48.780;9.210;2022-12-07T13:02:48;6.63;;;3.57;;
37047;SDS011;23227;48.780;9.210;2022-12-07T13:09:23;6.33;;;3.77;;
37047;SDS011;23227;48.780;9.210;2022-12-07T13:12:27;6.93;;;3.57;;
37047;SDS011;23227;48.780;9.210;2022-12-07T13:15:34;9.97;;;3.60;;
37047;SDS011;23227;48.780;9.210;2022-12-07T13:18:38;4.20;;;2.73;;
37047;SDS011;23227;48.780;9.210;2022-12-07T13:21:41;5.63;;;3.25;;
37047;SDS011;23227;48.780;9.210;2022-12-07T13:24:45;5.25;;;2.85;;
37047;SDS011;23227;48.780;9.210;2022-12-07T13:27:51;7.83;;;3.70;;
37047;SDS011;23227;48.780;9.210;2022-12-07T13:31:00;4.13;;;2.77;;
37047;SDS011;23227;48.780;9.210;2022-12-07T13:37:31;5.53;;;2.03;;
37047;SDS011;23227;48.780;9.210;2022-12-07T13:40:40;5.80;;;3.23;;
37047;SDS011;23227;48.780;9.210;2022-12-07T13:43:44;4.97;;;3.00;;
37047;SDS011;23227;48.780;9.210;2022-12-07T13:46:56;6.73;;;3.23;;
37047;SDS011;23227;48.780;9.210;2022-12-07T13:50:02;5.43;;;3.30;;
37047;SDS011;23227;48.780;9.210;2022-12-07T13:53:25;6.13;;;3.27;;
37047;SDS011;23227;48.780;9.210;2022-12-07T13:56:33;7.53;;;3.33;;
37047;SDS011;23227;48.780;9.210;2022-12-07T13:59:36;4.57;;;3.03;;
37047;SDS011;23227;48.780;9.210;2022-12-07T14:02:53;4.00;;;2.57;;
37047;SDS011;23227;48.780;9.210;2022-12-07T14:06:05;7.50;;;3.47;;
37047;SDS011;23227;48.780;9.210;2022-12-07T14:09:16;6.23;;;3.47;;
37047;SDS011;23227;48.780;9.210;2022-12-07T14:12:23;5.73;;;3.10;;
37047;SDS011;23227;48.780;9.210;2022-12-07T14:15:27;5.60;;;3.57;;
37047;SDS011;23227;48.780;9.210;2022-12-07T14:18:36;9.50;;;4.20;;
37047;SDS011;23227;48.780;9.210;2022-12-07T14:21:40;5.87;;;3.50;;
37047;SDS011;23227;48.780;9.210;2022-12-07T14:24:44;6.40;;;2.90;;
37047;SDS011;23227;48.780;9.210;2022-12-07T14:27:50;4.47;;;2.97;;
37047;SDS011;23227;48.780;9.210;2022-12-07T14:30:57;4.27;;;2.83;;
37047;SDS011;23227;48.780;9.210;2022-12-07T14:34:00;6.38;;;3.22;;
37047;SDS011;23227;48.780;9.210;2022-12-07T14:37:03;4.07;;;2.80;;
37047;SDS011;23227;48.780;9.210;2022-12-07T14:40:06;8.57;;;3.72;;
37047;SDS011;23227;48.780;9.210;2022-12-07T14:43:14;7.90;;;3.70;;
37047;SDS011;23227;48.780;9.210;2022-12-07T14:46:18;5.53;;;3.27;;
37047;SDS011;23227;48.780;9.210;2022-12-07T14:49:21;7.00;;;3.28;;
37047;SDS011;23227;48.780;9.210;2022-12-07T14:52:31;6.30;;;3.60;;
37047;SDS011;23227;48.780;9.210;2022-12-07T14:55:54;9.37;;;4.17;;
37047;SDS011;23227;48.780;9.210;2022-12-07T14:58:59;7.72;;;3.75;;
37047;SDS011;23227;48.780;9.210;2022-12-07T15:02:01;9.03;;;4.07;;
37047;SDS011;23227;48.780;9.210;2022-12-07T15:05:04;6.27;;;3.60;;
37047;SDS011;23227;48.780;9.210;2022-12-07T15:08:15;11.30;;;4.60;;
37047;SDS011;23227;48.780;9.210;2022-12-07T15:11:19;7.60;;;4.10;;
37047;SDS011;23227;48.780;9.210;2022-12-07T15:14:23;7.23;;;4.07;;
37047;SDS011;23227;48.780;9.210;2022-12-07T15:17:25;8.33;;;3.80;;
37047;SDS011;23227;48.780;9.210;2022-12-07T15:20:32;5.60;;;3.73;;
37047;SDS011;23227;48.780;9.210;2022-12-07T15:23:35;7.10;;;3.97;;
37047;SDS011;23227;48.780;9.210;2022-12-07T15:26:38;11.73;;;4.13;;
37047;SDS011;23227;48.780;9.210;2022-12-07T15:29:43;8.93;;;4.03;;
37047;SDS011;23227;48.780;9.210;2022-12-07T15:32:48;6.33;;;3.73;;
37047;SDS011;23227;48.780;9.210;2022-12-07T15:35:51;7.00;;;3.10;;
37047;SDS011;23227;48.780;9.210;2022-12-07T15:38:54;6.55;;;3.63;;
37047;SDS011;23227;48.780;9.210;2022-12-07T15:42:14;7.97;;;3.30;;
37047;SDS011;23227;48.780;9.210;2022-12-07T15:45:19;5.17;;;3.57;;
37047;SDS011;23227;48.780;9.210;2022-12-07T15:48:22;5.97;;;3.50;;
37047;SDS011;23227;48.780;9.210;2022-12-07T15:51:29;6.13;;;3.30;;
37047;SDS011;23227;48.780;9.210;2022-12-07T15:54:32;6.80;;;3.80;;
37047;SDS011;23227;48.780;9.210;2022-12-07T15:57:36;6.57;;;3.30;;
37047;SDS011;23227;48.780;9.210;2022-12-07T16:00:41;8.17;;;4.10;;
37047;SDS011;23227;48.780;9.210;2022-12-07T16:03:44;9.20;;;3.90;;
37047;SDS011;23227;48.780;9.210;2022-12-07T16:06:48;7.73;;;3.73;;
37047;SDS011;23227;48.780;9.210;2022-12-07T16:09:52;6.13;;;3.90;;
37047;SDS011;23227;48.780;9.210;2022-12-07T16:12:55;7.57;;;4.18;;
37047;SDS011;23227;48.780;9.210;2022-12-07T16:16:01;7.78;;;4.57;;
37047;SDS011;23227;48.780;9.210;2022-12-07T16:19:05;6.63;;;3.63;;
37047;SDS011;23227;48.780;9.210;2022-12-07T16:25:11;24.30;;;9.10;;
37047;SDS011;23227;48.780;9.210;2022-12-07T16:28:14;13.60;;;6.88;;
37047;SDS011;23227;48.780;9.210;2022-12-07T16:31:19;11.23;;;5.20;;
37047;SDS011;23227;48.780;9.210;2022-12-07T16:34:23;13.27;;;6.87;;
37047;SDS011;23227;48.780;9.210;2022-12-07T16:37:26;11.18;;;4.60;;
37047;SDS011;23227;48.780;9.210;2022-12-07T16:40:29;10.18;;;4.65;;
37047;SDS011;23227;48.780;9.210;2022-12-07T16:43:32;9.57;;;4.70;;
37047;SDS011;23227;48.780;9.210;2022-12-07T16:46:37;22.23;;;5.43;;
37047;SDS011;23227;48.780;9.210;2022-12-07T16:49:42;9.30;;;4.90;;
37047;SDS011;23227;48.780;9.210;2022-12-07T16:55:48;11.20;;;5.10;;
37047;SDS011;23227;48.780;9.210;2022-12-07T16:58:51;10.90;;;5.53;;
37047;SDS011;23227;48.780;9.210;2022-12-07T17:01:55;10.53;;;5.33;;
37047;SDS011;23227;48.780;9.210;2022-12-07T17:08:01;11.30;;;5.20;;
37047;SDS011;23227;48.780;9.210;2022-12-07T17:11:08;12.63;;;5.87;;
37047;SDS011;23227;48.780;9.210;2022-12-07T17:14:12;12.43;;;6.00;;
37047;SDS011;23227;48.780;9.210;2022-12-07T17:17:33;12.33;;;5.97;;
37047;SDS011;23227;48.780;9.210;2022-12-07T17:20:36;13.20;;;6.07;;
37047;SDS011;23227;48.780;9.210;2022-12-07T17:23:39;14.17;;;5.57;;
37047;SDS011;23227;48.780;9.210;2022-12-07T17:29:46;9.83;;;5.03;;
37047;SDS011;23227;48.780;9.210;2022-12-07T17:32:52;13.43;;;6.20;;
37047;SDS011;23227;48.780;9.210;2022-12-07T17:35:54;10.67;;;5.40;;
37047;SDS011;23227;48.780;9.210;2022-12-07T17:38:57;11.27;;;5.87;;
37047;SDS011;23227;48.780;9.210;2022-12-07T17:42:00;11.07;;;5.13;;
37047;SDS011;23227;48.780;9.210;2022-12-07T17:45:20;10.93;;;5.07;;
37047;SDS011;23227;48.780;9.210;2022-12-07T17:48:24;8.57;;;4.90;;
37047;SDS011;23227;48.780;9.210;2022-12-07T17:51:27;12.70;;;5.43;;
37047;SDS011;23227;48.780;9.210;2022-12-07T17:54:47;12.97;;;5.70;;
37047;SDS011;23227;48.780;9.210;2022-12-07T17:57:50;12.40;;;6.07;;
37047;SDS011;23227;48.780;9.210;2022-12-07T18:00:53;13.07;;;6.15;;
37047;SDS011;23227;48.780;9.210;2022-12-07T18:03:57;14.97;;;6.63;;
37047;SDS011;23227;48.780;9.210;2022-12-07T18:10:02;12.27;;;5.80;;
37047;SDS011;23227;48.780;9.210;2022-12-07T18:13:07;10.03;;;5.13;;
37047;SDS011;23227;48.780;9.210;2022-12-07T18:16:28;15.00;;;6.03;;
37047;SDS011;23227;48.780;9.210;2022-12-07T18:19:34;10.63;;;5.77;;
37047;SDS011;23227;48.780;9.210;2022-12-07T18:22:37;12.10;;;5.70;;
37047;SDS011;23227;48.780;9.210;2022-12-07T18:25:40;11.57;;;5.77;;
37047;SDS011;23227;48.780;9.210;2022-12-07T18:28:48;10.70;;;5.80;;
37047;SDS011;23227;48.780;9.210;2022-12-07T18:31:51;11.32;;;5.68;;
37047;SDS011;23227;48.780;9.210;2022-12-07T18:34:55;9.77;;;5.30;;
37047;SDS011;23227;48.780;9.210;2022-12-07T18:37:58;9.57;;;5.67;;
37047;SDS011;23227;48.780;9.210;2022-12-07T18:41:01;8.80;;;4.60;;
37047;SDS011;23227;48.780;9.210;2022-12-07T18:44:04;9.13;;;5.60;;
37047;SDS011;23227;48.780;9.210;2022-12-07T18:47:07;11.95;;;5.55;;
37047;SDS011;23227;48.780;9.210;2022-12-07T18:50:12;13.17;;;5.47;;
37047;SDS011;23227;48.780;9.210;2022-12-07T18:53:14;8.83;;;4.77;;
37047;SDS011;23227;48.780;9.210;2022-12-07T18:56:18;11.93;;;5.87;;
37047;SDS011;23227;48.780;9.210;2022-12-07T18:59:21;11.67;;;6.20;;
37047;SDS011;23227;48.780;9.210;2022-12-07T19:02:41;9.13;;;5.17;;
37047;SDS011;23227;48.780;9.210;2022-12-07T19:05:45;11.53;;;5.90;;
37047;SDS011;23227;48.780;9.210;2022-12-07T19:08:48;12.77;;;6.07;;
37047;SDS011;23227;48.780;9.210;2022-12-07T19:11:51;9.27;;;4.63;;
37047;SDS011;23227;48.780;9.210;2022-12-07T19:14:54;10.07;;;5.28;;
37047;SDS011;23227;48.780;9.210;2022-12-07T19:17:57;9.83;;;5.07;;
37047;SDS011;23227;48.780;9.210;2022-12-07T19:21:03;9.57;;;5.57;;
37047;SDS011;23227;48.780;9.210;2022-12-07T19:24:06;11.90;;;6.30;;
37047;SDS011;23227;48.780;9.210;2022-12-07T19:27:09;9.77;;;5.25;;
37047;SDS011;23227;48.780;9.210;2022-12-07T19:30:12;10.57;;;5.45;;
37047;SDS011;23227;48.780;9.210;2022-12-07T19:33:15;10.32;;;5.47;;
37047;SDS011;23227;48.780;9.210;2022-12-07T19:36:19;10.40;;;6.07;;